Time;durP1;ratioP1;P1;durP2;ratioP2;P2;SDS_P1;SDS_P2;PMS_P1;PMS_P2;Temp;Humidity;BMP_temperature;BMP_pressure;BME280_temperature;BME280_humidity;BME280_pressure;Samples;Min_cycle;Max_cycle;Signal;HPM_P1;HPM_P2
2022/07/26 00:01:52;;;;;;;25.33;23.13;;;23.10;99.90;;;;;;5047600;28;20431;-60
2022/07/26 00:04:17;;;;;;;25.87;23.57;;;23.00;99.90;;;;;;5031112;28;20630;-60
2022/07/26 00:06:43;;;;;;;22.83;20.83;;;23.00;99.90;;;;;;5040798;28;20177;-60
2022/07/26 00:09:09;;;;;;;20.17;18.27;;;23.00;99.90;;;;;;5035903;28;20236;-59
2022/07/26 00:11:35;;;;;;;19.93;18.27;;;23.00;99.90;;;;;;5052390;28;20329;-61
2022/07/26 00:14:02;;;;;;;19.20;17.50;;;23.00;99.90;;;;;;5034367;28;20196;-59
2022/07/26 00:16:28;;;;;;;18.30;16.70;;;23.00;99.90;;;;;;5052070;28;20216;-58
2022/07/26 00:18:54;;;;;;;17.73;16.13;;;23.00;99.90;;;;;;5036937;28;20478;-59
2022/07/26 00:21:20;;;;;;;19.33;17.63;;;23.00;99.90;;;;;;5041437;28;20428;-60
2022/07/26 00:23:46;;;;;;;18.63;16.87;;;22.90;99.90;;;;;;5037573;28;21822;-59
2022/07/26 00:26:11;;;;;;;18.17;16.67;;;22.90;99.90;;;;;;5048411;28;20194;-59
2022/07/26 00:28:37;;;;;;;18.47;16.87;;;22.80;99.90;;;;;;5036164;28;20198;-60
2022/07/26 00:31:03;;;;;;;18.83;17.27;;;22.80;99.90;;;;;;5052015;28;20196;-59
2022/07/26 00:33:28;;;;;;;18.73;17.03;;;22.90;99.90;;;;;;5037080;28;20220;-59
2022/07/26 00:35:54;;;;;;;16.47;14.97;;;22.80;99.90;;;;;;5047977;28;20212;-58
2022/07/26 00:38:20;;;;;;;17.17;15.77;;;22.70;99.90;;;;;;5043213;28;20189;-60
2022/07/26 00:40:45;;;;;;;16.17;14.87;;;22.70;99.90;;;;;;5041809;28;20641;-60
2022/07/26 00:43:11;;;;;;;16.17;14.77;;;22.60;99.90;;;;;;5042734;28;20200;-59
2022/07/26 00:45:36;;;;;;;17.03;15.40;;;22.60;99.90;;;;;;5051741;28;20684;-60
2022/07/26 00:48:02;;;;;;;18.77;17.07;;;22.60;99.90;;;;;;5045907;28;20185;-59
2022/07/26 00:50:28;;;;;;;18.27;16.57;;;22.70;99.90;;;;;;5032105;28;20186;-60
2022/07/26 00:52:54;;;;;;;18.00;16.40;;;22.70;99.90;;;;;;5046037;28;20189;-58
2022/07/26 00:55:19;;;;;;;18.50;17.00;;;22.60;99.90;;;;;;5035273;28;20376;-59
2022/07/26 00:57:46;;;;;;;18.20;16.80;;;22.50;99.90;;;;;;5043399;28;20212;-59
2022/07/26 01:00:15;;;;;;;19.37;17.57;;;22.40;99.90;;;;;;5035179;28;20558;-59
2022/07/26 01:02:42;;;;;;;20.10;18.33;;;22.50;99.90;;;;;;5035235;28;20442;-58
2022/07/26 01:05:08;;;;;;;19.70;18.00;;;22.50;99.90;;;;;;5053220;28;21098;-59
2022/07/26 01:07:35;;;;;;;19.43;17.63;;;22.50;99.90;;;;;;5037856;28;20432;-60
2022/07/26 01:10:02;;;;;;;19.43;17.83;;;22.50;99.90;;;;;;5051959;28;20247;-60
2022/07/26 01:12:27;;;;;;;18.37;16.87;;;22.50;99.90;;;;;;5034699;28;20444;-61
2022/07/26 01:14:53;;;;;;;19.37;17.43;;;22.50;99.90;;;;;;5043232;28;20431;-60
2022/07/26 01:17:18;;;;;;;19.00;17.30;;;22.60;99.90;;;;;;5037381;28;20340;-59
2022/07/26 01:19:44;;;;;;;22.73;20.93;;;22.50;99.90;;;;;;5033479;28;20254;-56
2022/07/26 01:22:09;;;;;;;27.23;24.80;;;22.50;99.90;;;;;;5036556;28;20186;-59
2022/07/26 01:24:35;;;;;;;29.67;26.97;;;22.50;99.90;;;;;;5052649;28;20174;-59
2022/07/26 01:27:01;;;;;;;53.23;48.30;;;22.50;99.90;;;;;;5040214;28;20194;-59
2022/07/26 01:29:26;;;;;;;51.27;46.63;;;22.50;99.90;;;;;;5042042;28;20596;-60
2022/07/26 01:31:52;;;;;;;58.83;53.50;;;22.40;99.90;;;;;;5042895;28;20197;-60
2022/07/26 01:34:18;;;;;;;96.10;87.50;;;22.40;99.90;;;;;;5052494;28;20188;-58
2022/07/26 01:36:44;;;;;;;102.93;93.90;;;22.40;99.90;;;;;;5038287;28;20469;-60
2022/07/26 01:39:10;;;;;;;107.83;98.10;;;22.30;99.90;;;;;;5052264;28;20515;-60
2022/07/26 01:41:36;;;;;;;106.70;97.07;;;22.20;99.90;;;;;;5045013;28;20243;-60
2022/07/26 01:44:02;;;;;;;101.77;92.70;;;22.20;99.90;;;;;;5040709;28;20237;-60
2022/07/26 01:46:28;;;;;;;99.87;90.83;;;22.10;99.90;;;;;;5046376;28;20275;-60
2022/07/26 01:48:53;;;;;;;99.00;90.10;;;22.10;99.90;;;;;;5052274;28;20865;-60
2022/07/26 01:51:19;;;;;;;83.30;75.67;;;22.00;99.90;;;;;;5046792;28;20209;-60
2022/07/26 01:53:45;;;;;;;73.77;67.07;;;21.70;99.90;;;;;;5039486;28;20196;-60
2022/07/26 01:56:13;;;;;;;84.70;76.70;;;21.60;99.90;;;;;;5046237;28;20232;-59
2022/07/26 01:58:40;;;;;;;83.77;76.50;;;21.40;99.90;;;;;;5038739;28;20250;-57
2022/07/26 02:01:07;;;;;;;60.23;55.00;;;21.30;99.90;;;;;;5048785;28;20787;-60
2022/07/26 02:03:33;;;;;;;59.23;53.50;;;21.30;99.90;;;;;;5037725;28;20448;-60
2022/07/26 02:05:58;;;;;;;45.00;40.87;;;21.20;99.90;;;;;;5037710;28;20506;-61
2022/07/26 02:08:24;;;;;;;47.30;43.10;;;21.20;99.90;;;;;;5038226;28;20515;-59
2022/07/26 02:11:00;;;;;;;56.97;51.80;;;21.10;99.90;;;;;;5044793;28;20191;-61
2022/07/26 02:13:36;;;;;;;58.17;52.77;;;21.10;99.90;;;;;;5034890;28;20199;-61
2022/07/26 02:16:03;;;;;;;61.97;56.17;;;21.10;99.90;;;;;;5049128;28;20469;-61
2022/07/26 02:18:30;;;;;;;48.40;43.50;;;21.10;99.90;;;;;;5032596;28;20446;-61
2022/07/26 02:20:57;;;;;;;46.50;42.00;;;21.10;99.90;;;;;;5035941;28;20818;-61
2022/07/26 02:23:24;;;;;;;47.40;42.90;;;21.10;99.90;;;;;;5029660;28;20954;-60
2022/07/26 02:25:50;;;;;;;48.73;44.33;;;21.10;99.90;;;;;;5036133;28;20436;-59
2022/07/26 02:28:16;;;;;;;50.93;45.83;;;21.10;99.90;;;;;;5034334;28;21332;-61
2022/07/26 02:30:43;;;;;;;52.97;47.97;;;21.10;99.90;;;;;;5049845;28;21082;-61
2022/07/26 02:33:09;;;;;;;54.83;49.90;;;21.10;99.90;;;;;;5036541;28;20441;-59
2022/07/26 02:35:35;;;;;;;53.67;48.37;;;21.10;99.90;;;;;;5035453;28;20937;-61
2022/07/26 02:38:05;;;;;;;53.70;48.40;;;21.10;99.90;;;;;;5041646;28;20189;-60
2022/07/26 02:40:32;;;;;;;56.40;51.00;;;21.10;99.90;;;;;;5037164;28;20536;-60
2022/07/26 02:42:57;;;;;;;56.23;51.03;;;21.10;99.90;;;;;;5030054;28;20441;-60
2022/07/26 02:45:23;;;;;;;57.57;52.07;;;21.10;99.90;;;;;;5029768;28;20419;-60
2022/07/26 02:47:51;;;;;;;55.93;50.70;;;21.10;99.90;;;;;;5042984;28;20184;-58
2022/07/26 02:50:18;;;;;;;55.57;50.07;;;21.10;99.90;;;;;;5037051;28;20441;-60
2022/07/26 02:52:47;;;;;;;54.77;49.33;;;21.10;99.90;;;;;;5035018;28;20450;-59
2022/07/26 02:55:17;;;;;;;56.93;51.53;;;21.10;99.90;;;;;;5038496;28;20470;-60
2022/07/26 02:57:43;;;;;;;55.33;49.87;;;21.10;99.90;;;;;;5036975;28;20437;-60
2022/07/26 03:00:12;;;;;;;52.43;47.53;;;21.10;99.90;;;;;;5031154;28;20463;-60
2022/07/26 03:02:38;;;;;;;50.07;45.23;;;21.10;99.90;;;;;;5035286;28;20417;-60
2022/07/26 03:05:05;;;;;;;47.30;42.90;;;21.10;99.90;;;;;;5028146;28;21039;-59
2022/07/26 03:07:32;;;;;;;46.77;42.47;;;21.10;99.90;;;;;;5045095;28;20449;-60
2022/07/26 03:09:58;;;;;;;43.63;39.13;;;21.20;99.90;;;;;;5039359;28;20812;-60
2022/07/26 03:12:24;;;;;;;40.33;36.67;;;21.20;99.90;;;;;;5031165;28;20438;-58
2022/07/26 03:14:50;;;;;;;42.17;37.97;;;21.20;99.90;;;;;;5034020;28;20442;-61
2022/07/26 03:17:15;;;;;;;37.97;34.53;;;21.20;99.90;;;;;;5041157;28;20552;-61
2022/07/26 03:19:41;;;;;;;38.00;34.50;;;21.20;99.90;;;;;;5031500;28;20289;-58
2022/07/26 03:22:07;;;;;;;38.23;34.60;;;21.10;99.90;;;;;;5034527;28;20205;-60
2022/07/26 03:24:33;;;;;;;36.13;32.90;;;21.10;99.90;;;;;;5049205;28;20205;-61
2022/07/26 03:26:59;;;;;;;38.50;35.00;;;21.20;99.90;;;;;;5033183;28;20185;-59
2022/07/26 03:29:24;;;;;;;36.33;33.13;;;21.20;99.90;;;;;;5049326;28;20892;-60
2022/07/26 03:31:50;;;;;;;39.37;35.90;;;21.10;99.90;;;;;;5035300;28;20265;-59
2022/07/26 03:34:16;;;;;;;39.17;35.27;;;21.20;99.90;;;;;;5047827;28;20584;-59
2022/07/26 03:36:45;;;;;;;37.17;33.83;;;21.20;99.90;;;;;;5045015;28;20486;-55
2022/07/26 03:39:11;;;;;;;36.90;33.77;;;21.20;99.90;;;;;;5049070;28;20503;-59
2022/07/26 03:41:36;;;;;;;35.53;32.23;;;21.20;99.90;;;;;;5043399;28;20525;-60
2022/07/26 03:44:02;;;;;;;32.97;30.17;;;21.20;99.90;;;;;;5048977;28;20187;-59
2022/07/26 03:46:28;;;;;;;32.77;29.83;;;21.20;99.90;;;;;;5039376;28;20195;-60
2022/07/26 03:48:53;;;;;;;33.03;29.87;;;21.20;99.90;;;;;;5030185;28;20212;-60
2022/07/26 03:51:19;;;;;;;33.93;30.80;;;21.10;99.90;;;;;;5037472;28;20198;-60
2022/07/26 03:53:45;;;;;;;32.20;29.30;;;21.10;99.90;;;;;;5030128;28;20184;-60
2022/07/26 03:58:57;;;;;;;34.90;31.80;;;21.10;99.90;;;;;;5031904;28;20237;-60
2022/07/26 04:01:22;;;;;;;33.30;30.10;;;21.00;99.90;;;;;;5038297;28;20528;-60
2022/07/26 04:03:48;;;;;;;36.53;33.13;;;21.10;99.90;;;;;;5040605;28;20915;-58
2022/07/26 04:06:13;;;;;;;33.73;30.53;;;21.10;99.90;;;;;;5034818;28;20259;-61
2022/07/26 04:08:39;;;;;;;34.97;31.70;;;21.00;99.90;;;;;;5042458;28;20192;-60
2022/07/26 04:11:05;;;;;;;36.83;33.33;;;21.10;99.90;;;;;;5030767;28;20206;-61
2022/07/26 04:13:30;;;;;;;36.03;32.77;;;21.10;99.90;;;;;;5039823;28;20199;-60
2022/07/26 04:15:56;;;;;;;36.50;33.10;;;21.20;99.90;;;;;;5032862;28;20213;-60
2022/07/26 04:18:22;;;;;;;35.63;32.40;;;21.20;99.90;;;;;;5026968;28;20192;-60
2022/07/26 04:20:47;;;;;;;30.83;28.03;;;21.20;99.90;;;;;;5022878;28;20180;-60
2022/07/26 04:23:13;;;;;;;30.40;27.60;;;21.20;99.90;;;;;;5039655;28;20879;-60
2022/07/26 04:25:39;;;;;;;30.90;28.00;;;21.30;99.90;;;;;;5033661;28;20192;-56
2022/07/26 04:28:05;;;;;;;29.73;26.63;;;21.20;99.90;;;;;;5036555;28;20278;-60
2022/07/26 04:30:31;;;;;;;26.70;24.30;;;21.20;99.90;;;;;;5028438;28;20503;-60
2022/07/26 04:32:56;;;;;;;24.37;22.07;;;21.30;99.90;;;;;;5024860;28;20203;-59
2022/07/26 04:35:22;;;;;;;21.77;19.87;;;21.40;99.90;;;;;;5033833;28;20473;-59
2022/07/26 04:37:48;;;;;;;20.80;18.80;;;21.40;99.90;;;;;;5024774;28;20224;-58
2022/07/26 04:40:19;;;;;;;19.47;17.70;;;21.40;99.90;;;;;;5027885;28;20192;-52
2022/07/26 04:42:46;;;;;;;21.43;19.20;;;21.40;99.90;;;;;;5029170;28;20259;-52
2022/07/26 04:45:12;;;;;;;19.20;17.50;;;21.40;99.90;;;;;;5042220;28;20421;-53
2022/07/26 04:47:44;;;;;;;20.10;18.30;;;21.50;99.90;;;;;;5029767;28;20807;-49
2022/07/26 04:50:12;;;;;;;18.67;16.77;;;21.40;99.90;;;;;;5038324;28;20561;-52
2022/07/26 04:52:38;;;;;;;18.33;16.63;;;21.50;99.90;;;;;;5035363;28;20444;-49
2022/07/26 04:55:05;;;;;;;17.57;15.87;;;21.50;99.90;;;;;;5038158;28;20961;-49
2022/07/26 04:57:31;;;;;;;18.13;16.33;;;21.50;99.90;;;;;;5042290;28;20437;-51
2022/07/26 04:59:57;;;;;;;18.07;16.17;;;21.50;99.90;;;;;;5036463;28;20463;-50
2022/07/26 05:02:22;;;;;;;16.30;14.53;;;21.80;99.90;;;;;;5030420;28;20225;-49
2022/07/26 05:04:48;;;;;;;13.20;12.00;;;21.70;99.90;;;;;;5039458;28;20279;-51
2022/07/26 05:07:13;;;;;;;12.33;11.23;;;21.60;99.90;;;;;;5048269;28;20254;-49
2022/07/26 05:09:39;;;;;;;12.90;11.90;;;21.50;99.90;;;;;;5051538;28;20187;-51
2022/07/26 05:12:05;;;;;;;11.33;10.43;;;21.50;99.90;;;;;;5034936;28;20243;-50
2022/07/26 05:14:30;;;;;;;11.77;10.77;;;21.40;99.90;;;;;;5050977;28;20206;-49
2022/07/26 05:16:56;;;;;;;12.10;11.10;;;21.50;99.90;;;;;;5027376;28;20549;-53
2022/07/26 05:19:21;;;;;;;12.60;11.60;;;21.40;99.90;;;;;;5039680;28;20551;-51
2022/07/26 05:21:47;;;;;;;11.73;10.73;;;21.50;99.90;;;;;;5032296;28;20195;-52
2022/07/26 05:24:13;;;;;;;12.40;11.30;;;21.50;99.90;;;;;;5050592;28;20713;-47
2022/07/26 05:26:38;;;;;;;12.00;10.90;;;21.50;99.90;;;;;;5041618;28;20547;-50
2022/07/26 05:29:04;;;;;;;12.60;11.53;;;21.60;99.90;;;;;;5049814;28;20554;-48
2022/07/26 05:31:29;;;;;;;13.90;11.87;;;21.70;99.90;;;;;;5043036;28;20198;-51
2022/07/26 05:33:55;;;;;;;13.23;12.17;;;21.70;99.90;;;;;;5050229;28;20264;-52
2022/07/26 05:36:21;;;;;;;12.17;11.10;;;21.80;99.90;;;;;;5036996;28;20682;-50
2022/07/26 05:38:46;;;;;;;12.30;11.30;;;21.80;99.90;;;;;;5036774;28;20192;-49
2022/07/26 05:41:12;;;;;;;11.70;10.63;;;21.90;99.90;;;;;;5046590;28;20182;-53
2022/07/26 05:43:38;;;;;;;11.90;10.80;;;22.00;99.90;;;;;;5034797;28;20201;-53
2022/07/26 05:46:03;;;;;;;10.77;9.70;;;22.10;99.90;;;;;;5043511;28;20910;-50
2022/07/26 05:48:29;;;;;;;10.87;9.97;;;22.10;99.90;;;;;;5027498;28;20224;-50
2022/07/26 05:50:55;;;;;;;11.27;10.30;;;22.10;99.90;;;;;;5040082;28;20199;-51
2022/07/26 05:53:21;;;;;;;10.70;9.77;;;22.20;99.90;;;;;;5046795;28;20652;-52
2022/07/26 05:55:47;;;;;;;10.07;9.17;;;22.20;99.90;;;;;;5048128;28;20674;-56
2022/07/26 05:58:12;;;;;;;9.40;8.60;;;22.30;99.90;;;;;;5035029;28;20514;-50
2022/07/26 06:00:38;;;;;;;10.40;9.50;;;22.30;99.90;;;;;;5048354;28;20264;-50
2022/07/26 06:03:20;;;;;;;10.37;9.30;;;22.30;99.90;;;;;;5032088;28;20579;-51
2022/07/26 06:05:47;;;;;;;11.07;10.00;;;22.30;99.90;;;;;;5041669;28;20191;-49
2022/07/26 06:08:12;;;;;;;10.50;9.70;;;22.30;99.90;;;;;;5047422;28;20463;-49
2022/07/26 06:10:38;;;;;;;12.80;9.60;;;22.30;99.90;;;;;;5032426;28;20424;-53
2022/07/26 06:13:03;;;;;;;9.83;8.97;;;22.40;99.90;;;;;;5027368;28;20715;-51
2022/07/26 06:15:29;;;;;;;10.17;9.47;;;22.50;99.90;;;;;;5041371;28;20300;-49
2022/07/26 06:17:54;;;;;;;10.60;9.70;;;22.40;99.90;;;;;;5034843;28;20200;-48
2022/07/26 06:20:20;;;;;;;9.80;9.00;;;22.40;99.90;;;;;;5028838;28;20273;-51
2022/07/26 06:22:46;;;;;;;9.50;8.80;;;22.60;99.90;;;;;;5044670;28;20197;-50
2022/07/26 06:25:11;;;;;;;9.90;9.10;;;22.70;99.90;;;;;;5047032;28;20194;-48
2022/07/26 06:27:37;;;;;;;8.90;8.20;;;22.90;99.90;;;;;;5038409;28;20645;-48
2022/07/26 06:30:03;;;;;;;8.80;7.90;;;23.00;99.90;;;;;;5042269;28;20730;-50
2022/07/26 06:32:29;;;;;;;8.20;7.30;;;23.10;99.90;;;;;;5038593;28;20555;-49
2022/07/26 06:34:54;;;;;;;8.80;7.37;;;23.30;99.90;;;;;;5027024;28;20436;-50
2022/07/26 06:37:20;;;;;;;8.13;7.10;;;23.30;99.10;;;;;;5022675;28;20194;-49
2022/07/26 06:39:46;;;;;;;8.23;7.03;;;23.30;97.40;;;;;;5028381;28;20536;-52
2022/07/26 06:42:11;;;;;;;7.30;6.70;;;23.30;96.10;;;;;;5031791;28;20222;-50
2022/07/26 06:44:37;;;;;;;7.63;7.03;;;23.30;95.50;;;;;;5042082;28;20255;-47
2022/07/26 06:47:02;;;;;;;7.87;7.17;;;23.30;95.20;;;;;;5045247;28;20264;-53
2022/07/26 06:49:28;;;;;;;7.37;6.77;;;23.20;94.70;;;;;;5027225;28;20590;-53
2022/07/26 06:51:56;;;;;;;6.53;6.03;;;23.10;95.30;;;;;;5034585;28;20189;-48
2022/07/26 06:54:23;;;;;;;6.77;6.27;;;23.10;95.40;;;;;;5040146;28;20196;-47
2022/07/26 06:56:48;;;;;;;8.57;6.60;;;23.20;93.50;;;;;;5047103;28;20463;-49
2022/07/26 06:59:14;;;;;;;7.07;6.40;;;23.10;93.60;;;;;;5030696;28;20483;-52
2022/07/26 07:01:39;;;;;;;8.13;7.47;;;23.10;94.10;;;;;;5027382;28;20194;-49
2022/07/26 07:04:05;;;;;;;6.43;6.03;;;23.20;93.80;;;;;;5024808;28;20648;-50
2022/07/26 07:06:31;;;;;;;7.23;6.73;;;23.30;92.80;;;;;;5025220;28;20189;-50
2022/07/26 07:08:57;;;;;;;6.50;6.10;;;23.50;92.80;;;;;;5026013;28;20190;-49
2022/07/26 07:11:22;;;;;;;6.73;6.23;;;23.60;92.40;;;;;;5034254;28;20440;-51
2022/07/26 07:13:48;;;;;;;7.10;6.40;;;23.70;90.50;;;;;;5034789;28;20294;-51
2022/07/26 07:16:13;;;;;;;6.50;6.00;;;23.80;90.30;;;;;;5033784;28;20209;-53
2022/07/26 07:18:39;;;;;;;6.30;5.90;;;23.70;89.90;;;;;;5036034;28;20914;-50
2022/07/26 07:21:05;;;;;;;6.67;6.17;;;23.80;87.90;;;;;;5033447;28;20277;-52
2022/07/26 07:23:32;;;;;;;6.63;6.00;;;23.70;87.20;;;;;;5030967;28;20268;-53
2022/07/26 07:25:58;;;;;;;7.03;6.43;;;23.70;86.10;;;;;;5032050;28;20563;-48
2022/07/26 07:28:23;;;;;;;6.50;6.00;;;23.80;86.20;;;;;;5041497;28;20438;-51
2022/07/26 07:30:49;;;;;;;6.00;5.57;;;23.80;83.90;;;;;;5033852;28;20190;-53
2022/07/26 07:33:15;;;;;;;8.23;6.00;;;23.90;84.50;;;;;;5044616;28;20196;-50
2022/07/26 07:35:41;;;;;;;6.63;6.03;;;23.80;82.40;;;;;;5029081;28;20206;-50
2022/07/26 07:38:07;;;;;;;6.80;6.30;;;23.80;83.40;;;;;;5040638;28;20431;-51
2022/07/26 07:40:32;;;;;;;6.27;5.67;;;24.00;83.70;;;;;;5030434;28;20190;-50
2022/07/26 07:42:58;;;;;;;6.50;6.10;;;24.10;80.70;;;;;;5040589;28;21089;-50
2022/07/26 07:45:24;;;;;;;6.70;6.30;;;24.10;79.00;;;;;;5039358;28;20841;-53
2022/07/26 07:47:49;;;;;;;6.60;6.00;;;24.10;77.60;;;;;;5046588;28;20182;-51
2022/07/26 07:50:15;;;;;;;6.73;5.93;;;24.10;77.50;;;;;;5042242;28;20196;-54
2022/07/26 07:52:40;;;;;;;5.63;5.23;;;24.10;74.40;;;;;;5046463;28;20187;-51
2022/07/26 07:55:07;;;;;;;6.10;5.60;;;24.30;75.20;;;;;;5043555;28;20182;-51
2022/07/26 07:57:34;;;;;;;5.90;5.50;;;24.40;75.30;;;;;;5046886;28;20181;-50
2022/07/26 08:00:00;;;;;;;7.40;6.40;;;24.50;73.40;;;;;;5038468;28;20462;-52
2022/07/26 08:02:26;;;;;;;6.23;5.53;;;24.50;71.90;;;;;;5039054;28;20456;-50
2022/07/26 08:04:53;;;;;;;5.90;5.50;;;24.50;70.20;;;;;;5034409;28;20417;-49
2022/07/26 08:07:18;;;;;;;5.93;5.50;;;24.40;69.40;;;;;;5031046;28;21662;-50
2022/07/26 08:09:44;;;;;;;5.63;5.17;;;24.40;70.10;;;;;;5036861;28;20435;-53
2022/07/26 08:12:10;;;;;;;5.77;5.37;;;24.60;69.60;;;;;;5034011;28;20278;-53
2022/07/26 08:14:35;;;;;;;6.30;5.70;;;24.70;68.30;;;;;;5049780;28;20642;-54
2022/07/26 08:17:01;;;;;;;5.30;5.00;;;24.70;66.70;;;;;;5035081;28;20466;-52
2022/07/26 08:19:27;;;;;;;5.00;4.70;;;24.80;64.90;;;;;;5030127;28;20194;-53
2022/07/26 08:21:52;;;;;;;6.27;5.67;;;24.70;65.80;;;;;;5031440;28;20266;-49
2022/07/26 08:24:18;;;;;;;6.00;5.37;;;24.50;66.50;;;;;;5037846;28;20187;-52
2022/07/26 08:26:44;;;;;;;4.77;4.33;;;24.30;67.50;;;;;;5029694;28;20206;-54
2022/07/26 08:29:09;;;;;;;5.03;4.40;;;24.30;67.90;;;;;;5036841;28;20216;-50
2022/07/26 08:31:35;;;;;;;5.37;4.97;;;24.40;67.60;;;;;;5041537;28;20439;-51
2022/07/26 08:34:01;;;;;;;8.77;4.77;;;24.50;67.60;;;;;;5049898;28;20190;-53
2022/07/26 08:36:27;;;;;;;5.20;4.80;;;24.70;66.70;;;;;;5041811;28;20199;-48
2022/07/26 08:38:52;;;;;;;5.10;4.70;;;24.90;65.60;;;;;;5049682;28;20236;-52
2022/07/26 08:41:18;;;;;;;5.10;4.70;;;24.90;64.70;;;;;;5045137;28;20665;-50
2022/07/26 08:43:44;;;;;;;5.33;4.50;;;24.80;62.60;;;;;;5049674;28;20183;-50
2022/07/26 08:46:10;;;;;;;5.60;4.80;;;24.50;62.80;;;;;;5046036;28;20194;-49
2022/07/26 08:48:36;;;;;;;5.10;4.70;;;24.40;64.40;;;;;;5032009;28;20488;-50
2022/07/26 08:51:07;;;;;;;5.07;4.77;;;24.40;64.70;;;;;;5033459;28;20595;-49
2022/07/26 08:53:36;;;;;;;5.93;5.00;;;24.40;64.90;;;;;;5034066;28;20421;-49
2022/07/26 08:56:03;;;;;;;5.50;5.10;;;24.50;65.60;;;;;;5035319;28;20582;-49
2022/07/26 08:58:32;;;;;;;6.50;5.33;;;24.70;65.30;;;;;;5048752;28;20491;-51
2022/07/26 09:01:06;;;;;;;6.10;5.60;;;24.90;65.70;;;;;;5049112;28;20460;-49
2022/07/26 09:03:32;;;;;;;6.40;5.80;;;24.90;65.70;;;;;;5032868;28;20440;-51
2022/07/26 09:06:11;;;;;;;6.40;5.80;;;24.80;65.90;;;;;;5044031;28;20436;-46
2022/07/26 09:08:36;;;;;;;5.43;5.07;;;24.90;66.70;;;;;;5032544;28;20190;-51
2022/07/26 09:11:22;;;;;;;10.10;6.40;;;25.10;66.20;;;;;;5040293;28;20424;-49
2022/07/26 09:13:53;;;;;;;5.90;5.47;;;25.20;65.80;;;;;;5042474;28;20276;-52
2022/07/26 09:16:19;;;;;;;5.50;5.13;;;25.40;65.00;;;;;;5046215;28;20859;-54
2022/07/26 09:18:45;;;;;;;6.37;5.80;;;25.40;64.30;;;;;;5028765;28;20417;-49
2022/07/26 09:21:26;;;;;;;5.70;5.30;;;25.60;62.50;;;;;;5035516;28;20430;-50
2022/07/26 09:23:52;;;;;;;6.00;5.40;;;25.70;62.40;;;;;;5040446;28;20475;-50
2022/07/26 09:26:21;;;;;;;6.20;5.60;;;25.80;62.00;;;;;;5027497;28;21233;-51
2022/07/26 09:29:03;;;;;;;7.47;5.70;;;25.90;60.00;;;;;;5029238;28;20204;-53
2022/07/26 09:31:28;;;;;;;6.10;5.60;;;25.70;61.10;;;;;;5039934;28;20433;-51
2022/07/26 09:33:54;;;;;;;5.97;5.47;;;25.70;60.40;;;;;;5033939;28;20431;-51
2022/07/26 09:36:20;;;;;;;5.33;4.93;;;25.60;61.00;;;;;;5048739;28;20225;-54
2022/07/26 09:38:46;;;;;;;6.07;5.57;;;25.50;61.00;;;;;;5040212;28;20965;-51
2022/07/26 09:41:27;;;;;;;5.67;5.20;;;25.40;60.80;;;;;;5040861;28;20435;-55
2022/07/26 09:43:54;;;;;;;5.90;5.50;;;25.40;61.00;;;;;;5022286;28;20198;-52
2022/07/26 09:46:21;;;;;;;6.20;5.70;;;25.60;60.10;;;;;;5029213;28;20437;-51
2022/07/26 09:48:47;;;;;;;5.60;5.30;;;25.90;58.70;;;;;;5034667;28;20439;-50
2022/07/26 09:51:13;;;;;;;5.10;4.80;;;25.90;55.70;;;;;;5042345;28;20433;-51
2022/07/26 09:53:45;;;;;;;5.90;5.50;;;25.80;55.30;;;;;;5027442;28;20198;-52
2022/07/26 09:56:11;;;;;;;5.90;5.50;;;25.80;55.00;;;;;;5032366;28;20781;-49
2022/07/26 09:58:37;;;;;;;5.07;4.87;;;25.90;55.60;;;;;;5034798;28;20532;-48
2022/07/26 10:01:07;;;;;;;5.50;5.20;;;26.00;55.60;;;;;;5030003;28;20442;-51
2022/07/26 10:03:34;;;;;;;5.50;5.20;;;26.20;55.50;;;;;;5021281;28;20530;-51
2022/07/26 10:06:01;;;;;;;5.40;5.10;;;26.20;55.20;;;;;;5031181;28;20428;-50
2022/07/26 10:08:28;;;;;;;6.00;5.50;;;26.30;54.10;;;;;;5042215;28;20446;-53
2022/07/26 10:11:04;;;;;;;5.60;5.30;;;26.40;50.80;;;;;;5031683;28;20424;-51
2022/07/26 10:13:30;;;;;;;5.00;4.70;;;26.60;51.60;;;;;;5044359;28;21143;-52
2022/07/26 10:15:56;;;;;;;5.57;5.30;;;26.70;51.20;;;;;;5026027;28;20472;-52
2022/07/26 10:18:37;;;;;;;5.70;5.20;;;26.90;49.10;;;;;;5034411;28;20415;-50
2022/07/26 10:21:15;;;;;;;4.80;4.50;;;26.80;49.60;;;;;;5022831;28;20431;-50
2022/07/26 10:23:42;;;;;;;5.20;4.80;;;26.70;48.70;;;;;;5042726;28;21067;-48
2022/07/26 10:26:11;;;;;;;5.07;4.77;;;26.60;48.10;;;;;;5043591;28;20423;-51
2022/07/26 10:28:38;;;;;;;5.27;4.93;;;26.50;48.20;;;;;;5046685;28;20415;-51
2022/07/26 10:31:30;;;;;;;4.83;4.63;;;26.60;48.00;;;;;;5043641;28;20819;-53
2022/07/26 10:33:58;;;;;;;5.63;5.23;;;26.80;47.90;;;;;;5018830;28;20459;-54
2022/07/26 10:36:27;;;;;;;4.70;4.40;;;26.90;47.90;;;;;;5033787;28;20514;-51
2022/07/26 10:39:13;;;;;;;4.93;4.63;;;27.20;45.70;;;;;;5021656;28;20413;-54
2022/07/26 10:41:43;;;;;;;5.57;5.27;;;27.30;44.90;;;;;;5032902;28;20929;-53
2022/07/26 10:44:16;;;;;;;5.57;5.20;;;27.20;44.80;;;;;;5037968;28;20731;-52
2022/07/26 10:46:57;;;;;;;4.93;4.73;;;27.10;45.20;;;;;;5032590;28;20436;-53
2022/07/26 10:49:39;;;;;;;5.10;4.70;;;27.10;44.80;;;;;;5040655;28;20509;-52
2022/07/26 10:52:09;;;;;;;5.47;5.17;;;27.10;45.20;;;;;;5029357;28;20432;-52
2022/07/26 10:55:03;;;;;;;5.00;4.70;;;27.20;45.90;;;;;;5025316;28;20439;-52
2022/07/26 10:57:41;;;;;;;4.33;4.13;;;27.40;45.80;;;;;;5028588;28;20457;-51
2022/07/26 11:00:14;;;;;;;5.10;4.90;;;27.60;41.30;;;;;;5029738;28;20594;-49
2022/07/26 11:02:42;;;;;;;4.90;4.70;;;27.70;42.90;;;;;;5027798;28;20982;-50
2022/07/26 11:05:14;;;;;;;6.40;5.90;;;27.90;42.50;;;;;;5042663;28;20555;-53
2022/07/26 11:07:50;;;;;;;5.73;5.30;;;27.80;43.30;;;;;;5029701;28;21075;-49
2022/07/26 11:10:25;;;;;;;5.57;5.17;;;27.80;42.50;;;;;;5042846;28;20804;-48
2022/07/26 11:13:02;;;;;;;5.63;5.13;;;28.00;42.30;;;;;;5036010;28;20434;-51
2022/07/26 11:15:28;;;;;;;4.70;4.30;;;28.00;40.90;;;;;;5029952;28;20520;-49
2022/07/26 11:18:07;;;;;;;4.27;4.07;;;28.10;39.70;;;;;;5025917;28;20802;-51
2022/07/26 11:20:32;;;;;;;4.63;4.33;;;28.30;40.60;;;;;;5022522;28;20436;-51
2022/07/26 11:22:58;;;;;;;4.70;4.50;;;28.60;39.40;;;;;;5025412;28;20421;-48
2022/07/26 11:25:24;;;;;;;4.70;4.40;;;29.00;37.70;;;;;;5041223;28;20231;-51
2022/07/26 11:28:04;;;;;;;5.07;4.60;;;29.00;38.00;;;;;;5043795;28;20529;-52
2022/07/26 11:30:30;;;;;;;5.03;4.73;;;29.20;37.20;;;;;;5039675;28;20254;-49
2022/07/26 11:32:59;;;;;;;5.83;4.63;;;29.00;35.90;;;;;;5025954;28;20846;-52
2022/07/26 11:35:26;;;;;;;4.80;4.50;;;28.40;37.20;;;;;;5043988;28;20194;-55
2022/07/26 11:37:56;;;;;;;4.53;4.30;;;28.50;38.30;;;;;;5032956;28;20462;-52
2022/07/26 11:40:43;;;;;;;5.20;4.90;;;28.90;35.40;;;;;;5046742;28;20416;-52
2022/07/26 11:43:09;;;;;;;5.53;5.00;;;28.70;33.70;;;;;;5035781;28;20716;-54
2022/07/26 11:45:35;;;;;;;4.73;4.43;;;28.70;33.80;;;;;;5050028;28;20915;-53
2022/07/26 11:48:01;;;;;;;5.00;4.57;;;28.70;34.70;;;;;;5034374;28;20182;-53
2022/07/26 11:50:27;;;;;;;5.00;4.67;;;28.70;37.20;;;;;;5022516;28;20283;-51
2022/07/26 11:52:53;;;;;;;5.77;5.37;;;28.80;38.20;;;;;;5038391;28;20436;-55
2022/07/26 11:55:29;;;;;;;4.60;4.40;;;29.10;38.20;;;;;;5034726;28;20286;-54
2022/07/26 11:57:55;;;;;;;5.60;5.10;;;29.40;37.60;;;;;;5039773;28;20243;-50
2022/07/26 12:00:22;;;;;;;4.60;4.40;;;29.50;36.40;;;;;;5030243;28;20509;-50
2022/07/26 12:02:48;;;;;;;4.40;4.17;;;29.80;35.60;;;;;;5031212;28;21006;-49
2022/07/26 12:05:17;;;;;;;4.60;4.40;;;30.00;32.80;;;;;;5045750;28;20416;-54
2022/07/26 12:07:58;;;;;;;5.13;4.90;;;29.60;31.70;;;;;;5041493;28;20457;-49
2022/07/26 12:10:24;;;;;;;8.10;5.43;;;29.50;33.50;;;;;;5032127;28;20416;-51
2022/07/26 12:13:11;;;;;;;4.33;4.07;;;29.50;34.80;;;;;;5039123;28;20428;-53
2022/07/26 12:15:48;;;;;;;4.70;4.40;;;29.70;34.80;;;;;;5048317;28;20444;-50
2022/07/26 12:18:28;;;;;;;4.37;4.17;;;29.80;34.70;;;;;;5040638;28;20514;-49
2022/07/26 12:21:02;;;;;;;4.93;4.57;;;30.10;32.30;;;;;;5030147;28;20413;-54
2022/07/26 12:23:49;;;;;;;4.70;4.30;;;30.30;32.60;;;;;;5030061;28;21019;-49
2022/07/26 12:26:29;;;;;;;4.37;4.07;;;30.00;32.70;;;;;;5030162;28;20516;-49
2022/07/26 12:28:57;;;;;;;4.57;4.27;;;30.10;31.40;;;;;;5029954;28;20547;-52
2022/07/26 12:31:31;;;;;;;4.33;4.13;;;30.20;32.20;;;;;;5030458;28;20501;-52
2022/07/26 12:33:57;;;;;;;4.13;3.93;;;30.50;33.20;;;;;;5028087;28;20441;-48
2022/07/26 12:36:24;;;;;;;5.10;4.70;;;30.70;32.50;;;;;;5029736;28;21070;-50
2022/07/26 12:38:52;;;;;;;4.67;4.37;;;30.80;31.70;;;;;;5028627;28;20441;-51
2022/07/26 12:41:35;;;;;;;4.50;4.20;;;30.80;31.30;;;;;;5029781;28;20476;-50
2022/07/26 12:44:01;;;;;;;4.30;4.00;;;30.70;29.00;;;;;;5028561;28;20438;-50